createdAt,value
2016-09-28T03:01:03.524Z,47.48
2016-09-28T03:01:29.166Z,47.38
2016-09-28T03:01:54.728Z,47.48
2016-09-28T03:02:20.273Z,47.48
2016-09-28T03:02:45.834Z,47.19
2016-09-28T03:03:11.395Z,47.38
2016-09-28T03:03:37.025Z,47.29
2016-09-28T03:04:02.683Z,47.87
2016-09-28T03:04:28.180Z,47.29
2016-09-28T03:04:53.737Z,47.58
2016-09-28T03:05:19.385Z,47.67
2016-09-28T03:05:44.944Z,47.38
2016-09-28T03:06:10.520Z,47.48
2016-09-28T03:06:36.104Z,47.38
2016-09-28T03:07:01.686Z,47.48
2016-09-28T03:07:27.250Z,47.48
2016-09-28T03:07:52.865Z,47.45
2016-09-28T03:08:18.431Z,47.67
2016-09-28T03:08:43.985Z,47.48
2016-09-28T03:09:09.635Z,47.38
2016-09-28T03:09:35.190Z,47.38
2016-09-28T03:10:00.761Z,47.29
2016-09-28T03:10:26.369Z,47.38
2016-09-28T03:10:51.949Z,47.38
2016-09-28T03:11:17.517Z,47.38
2016-09-28T03:11:43.148Z,47.29
2016-09-28T03:12:08.746Z,47.48
2016-09-28T03:12:34.299Z,47.38
2016-09-28T03:12:59.961Z,47.48
2016-09-28T03:13:25.584Z,47.77
2016-09-28T03:13:51.146Z,47.48
2016-09-28T03:14:16.690Z,47.77
2016-09-28T03:14:42.364Z,47.87
2016-09-28T03:15:07.912Z,47.48
2016-09-28T03:15:33.472Z,47.48
2016-09-28T03:15:59.024Z,47.48
2016-09-28T03:16:24.560Z,47.77
2016-09-28T03:16:50.147Z,47.77
2016-09-28T03:17:15.735Z,47.87
2016-09-28T03:17:41.318Z,47.67
2016-09-28T03:18:06.946Z,47.67
2016-09-28T03:18:32.493Z,47.87
2016-09-28T03:18:58.072Z,47.85
2016-09-28T03:19:23.635Z,47.87
2016-09-28T03:19:49.218Z,47.77
2016-09-28T03:20:14.780Z,47.87
2016-09-28T03:20:40.367Z,47.87
2016-09-28T03:21:05.913Z,47.87
2016-09-28T03:21:31.450Z,47.87
2016-09-28T03:21:56.991Z,47.87
2016-09-28T03:22:22.547Z,47.96
2016-09-28T03:22:48.139Z,47.87
2016-09-28T03:23:13.667Z,47.77
2016-09-28T03:23:39.234Z,47.85
2016-09-28T03:24:04.795Z,47.77
2016-09-28T03:24:30.468Z,47.87
2016-09-28T03:24:56.048Z,47.87
2016-09-28T03:25:21.617Z,47.87
2016-09-28T03:25:47.362Z,47.77
2016-09-28T03:26:12.933Z,48.06
2016-09-28T03:26:38.511Z,48.06
2016-09-28T03:27:04.071Z,48.06
2016-09-28T03:27:29.703Z,48.06
2016-09-28T03:27:55.247Z,48.06
2016-09-28T03:28:20.822Z,48.06
2016-09-28T03:28:46.472Z,47.96
2016-09-28T03:29:12.044Z,48.06
2016-09-28T03:29:37.609Z,47.96
2016-09-28T03:30:03.179Z,47.87
2016-09-28T03:30:28.750Z,47.96
2016-09-28T03:30:54.367Z,48.16
2016-09-28T03:31:19.937Z,47.96
2016-09-28T03:31:45.490Z,47.96
2016-09-28T03:32:11.048Z,48.06
2016-09-28T03:32:36.591Z,48.06
2016-09-28T03:33:02.209Z,48.06
2016-09-28T03:33:27.757Z,48.06
2016-09-28T03:33:53.335Z,48.06
2016-09-28T03:34:18.894Z,47.96
2016-09-28T03:34:44.492Z,48.06
2016-09-28T03:35:10.301Z,47.87
2016-09-28T03:35:35.856Z,47.94
2016-09-28T03:36:01.435Z,48.06
2016-09-28T03:36:26.980Z,47.87
2016-09-28T03:36:52.534Z,47.96
2016-09-28T03:37:18.105Z,48.03
2016-09-28T03:37:43.667Z,48.16
2016-09-28T03:38:09.212Z,47.96
2016-09-28T03:38:34.757Z,47.96
2016-09-28T03:39:00.316Z,47.85
2016-09-28T03:39:25.866Z,47.96
2016-09-28T03:39:51.409Z,47.96
2016-09-28T03:40:16.963Z,47.77
2016-09-28T03:40:42.498Z,47.87
2016-09-28T03:41:08.037Z,47.77
2016-09-28T03:41:33.612Z,47.77
2016-09-28T03:41:59.156Z,47.96
2016-09-28T03:42:24.764Z,47.96
2016-09-28T03:42:51.263Z,48.06
2016-09-28T03:43:16.852Z,47.96
2016-09-28T03:43:42.430Z,47.67
2016-09-28T03:44:07.987Z,47.77
2016-09-28T03:44:33.570Z,47.75
2016-09-28T03:44:59.164Z,47.75
2016-09-28T03:45:24.757Z,47.67
2016-09-28T03:45:50.304Z,47.75
2016-09-28T03:46:15.960Z,47.77
2016-09-28T03:46:41.575Z,47.75
2016-09-28T04:05:33.345Z,47.29
2016-09-28T04:05:58.931Z,47.07
2016-09-28T04:06:24.491Z,48.03
2016-09-28T04:06:50.153Z,47.65
2016-09-28T04:07:15.687Z,48.03
2016-09-28T04:07:41.250Z,48.13
2016-09-28T04:08:06.809Z,48.33
2016-09-28T04:08:32.360Z,48.33
2016-09-28T04:08:57.929Z,48.42
2016-09-28T04:09:23.510Z,48.23
2016-09-28T04:09:49.102Z,48.13
2016-09-28T04:10:14.660Z,48.13
2016-09-28T04:10:40.215Z,48.23
2016-09-28T04:11:05.771Z,47.85
2016-09-28T04:11:31.346Z,48.03
2016-09-28T04:11:56.921Z,48.13
2016-09-28T04:12:22.484Z,48.23
2016-09-28T04:12:48.061Z,47.65
2016-09-28T04:13:13.633Z,47.94
2016-09-28T04:13:39.183Z,47.65
2016-09-28T04:14:04.772Z,48.13
2016-09-28T04:14:30.333Z,47.55
2016-09-28T04:14:55.901Z,47.85
2016-09-28T04:15:21.460Z,47.94
2016-09-28T04:15:47.113Z,47.65
2016-09-28T04:16:12.675Z,47.85
2016-09-28T04:16:38.292Z,48.13
2016-09-28T04:17:03.884Z,47.85
2016-09-28T04:17:29.458Z,47.94
2016-09-28T04:17:55.023Z,47.55
2016-09-28T04:18:20.613Z,47.94
2016-09-28T04:18:46.166Z,48.03
2016-09-28T04:19:11.734Z,47.55
2016-09-28T04:19:37.276Z,47.65
2016-09-28T04:20:02.863Z,47.85
2016-09-28T04:20:28.444Z,48.03
2016-09-28T04:20:54.014Z,47.27
2016-09-28T04:21:19.582Z,47.17
2016-09-28T04:21:45.136Z,47.36
2016-09-28T04:22:10.678Z,47.85
2016-09-28T04:22:36.264Z,47.75
2016-09-28T04:23:01.947Z,47.55
2016-09-28T04:23:27.419Z,48.61
2016-09-28T04:23:52.982Z,48.03
2016-09-28T04:24:18.633Z,47.75
2016-09-28T04:24:44.223Z,48.42
2016-09-28T04:25:09.775Z,47.17
2016-09-28T04:25:35.329Z,47.07
2016-09-28T04:26:00.886Z,47.36
2016-09-28T04:26:26.452Z,47.17
2016-09-28T04:26:52.030Z,47.17
2016-09-28T04:27:17.584Z,47.45
2016-09-28T04:27:43.173Z,48.03
2016-09-28T04:28:08.754Z,48.13
2016-09-28T04:28:34.353Z,47.94
2016-09-28T04:28:59.924Z,47.45
2016-09-28T04:29:25.512Z,47.55
2016-09-28T04:29:51.094Z,47.27
2016-09-28T04:30:16.673Z,47.17
2016-09-28T04:30:42.377Z,46.88
2016-09-28T04:31:07.931Z,46.88
2016-09-28T04:31:33.510Z,47.17
2016-09-28T04:32:26.779Z,47.36
2016-09-28T04:32:52.364Z,47.07
2016-09-28T04:33:17.925Z,47.45
2016-09-28T04:33:43.478Z,47.36
2016-09-28T04:34:09.055Z,46.97
2016-09-28T04:34:34.622Z,47.17
2016-09-28T04:35:00.188Z,47.27
2016-09-28T04:35:58.447Z,47.65
2016-09-28T04:36:24.013Z,48.61
2016-09-28T04:36:49.580Z,47.55
2016-09-28T04:37:15.211Z,48.42
2016-09-28T04:37:40.765Z,47.94
2016-09-28T04:39:42.054Z,46.78
2016-09-28T04:40:07.625Z,47.27
2016-09-28T04:40:33.188Z,47.27
2016-09-28T04:40:58.765Z,46.78
2016-09-28T04:41:24.342Z,47.07
2016-09-28T04:41:49.982Z,47.45
2016-09-28T04:42:53.202Z,47.17
2016-09-28T04:43:18.776Z,47.07
2016-09-28T04:43:44.335Z,47.17
2016-09-28T04:44:09.883Z,47.94
2016-09-28T04:44:35.603Z,47.85
2016-09-28T04:45:01.179Z,47.17
2016-09-28T04:45:26.745Z,46.97
2016-09-28T04:45:52.291Z,47.36
2016-09-28T04:46:17.856Z,47.36
2016-09-28T04:46:43.420Z,48.03
2016-09-28T04:47:08.992Z,47.94
2016-09-28T04:47:34.554Z,47.55
2016-09-28T04:48:00.125Z,47.94
2016-09-28T04:48:25.669Z,47.94
2016-09-28T04:48:51.251Z,47.94
2016-09-28T04:49:16.823Z,46.97
2016-09-28T04:49:42.403Z,47.36
2016-09-28T04:50:07.992Z,46.01
2016-09-28T04:50:33.549Z,46.59
2016-09-28T04:50:59.124Z,46.4
2016-09-28T04:51:24.702Z,46.49
2016-09-28T04:52:27.923Z,46.4
2016-09-28T04:52:53.493Z,46.4
2016-09-28T04:53:19.040Z,46.01
2016-09-28T04:53:44.611Z,45.92
2016-09-28T04:54:10.167Z,46.11
2016-09-28T04:54:35.808Z,45.53
2016-09-28T04:55:01.408Z,45.62
2016-09-28T04:55:27.005Z,46.49
2016-09-28T04:55:53.198Z,46.59
2016-09-28T04:56:18.774Z,45.82
2016-09-28T04:56:44.373Z,46.11
2016-09-28T04:57:09.931Z,46.4
2016-09-28T04:57:35.520Z,46.49
2016-09-28T04:58:01.085Z,46.69
2016-09-28T04:58:26.706Z,46.59
2016-09-28T04:58:52.244Z,46.4
2016-09-28T04:59:17.798Z,46.59
2016-09-28T04:59:43.351Z,46.59
2016-09-28T05:00:08.903Z,45.92
2016-09-28T05:00:34.540Z,45.92
2016-09-28T05:01:00.110Z,46.4
2016-09-28T05:01:25.691Z,46.01
2016-09-28T05:01:51.337Z,46.3
2016-09-28T05:02:16.899Z,46.3
2016-09-28T05:02:42.572Z,46.49
2016-09-28T05:03:08.041Z,46.01
2016-09-28T05:03:33.646Z,46.11
2016-09-28T05:03:59.222Z,45.82
2016-09-28T05:04:24.779Z,45.72
2016-09-28T05:04:50.331Z,45.04
2016-09-28T05:05:15.941Z,45.14
2016-09-28T05:05:41.572Z,45.24
2016-09-28T05:06:07.072Z,45.53
2016-09-28T05:06:32.649Z,45.34
2016-09-28T05:06:58.332Z,45.24
2016-09-28T05:07:23.913Z,45.14
2016-09-28T05:07:49.493Z,44.95
2016-09-28T05:08:15.072Z,45.14
2016-09-28T05:08:40.745Z,44.85
2016-09-28T05:09:06.314Z,44.95
2016-09-28T05:09:31.944Z,44.85
2016-09-28T05:09:57.532Z,44.76
2016-09-28T05:10:23.107Z,45.21
2016-09-28T05:10:48.692Z,45.12
2016-09-28T05:11:14.331Z,44.85
2016-09-28T05:11:39.933Z,45.21
2016-09-28T05:12:05.517Z,45.21
2016-09-28T05:12:31.170Z,45.24
2016-09-28T05:12:56.745Z,45.03
2016-09-28T05:13:22.313Z,44.85
2016-09-28T05:13:47.893Z,44.73
2016-09-28T05:14:13.571Z,44.95
2016-09-28T05:14:39.152Z,45.34
2016-09-28T05:15:04.712Z,45.24
2016-09-28T05:15:30.307Z,45.24
2016-09-28T05:15:55.907Z,45.03
2016-09-28T05:16:21.460Z,45.21
2016-09-28T05:16:47.155Z,45.31
2016-09-28T05:17:12.776Z,45.12
2016-09-28T05:17:38.280Z,45.12
2016-09-28T05:18:03.924Z,45.12
2016-09-28T05:18:29.491Z,45.03
2016-09-28T05:18:55.084Z,45.03
2016-09-28T05:19:20.639Z,44.64
2016-09-28T05:21:01.468Z,45.12
2016-09-28T05:21:27.062Z,45.03
2016-09-28T05:21:52.624Z,45.03
2016-09-28T05:22:18.201Z,44.93
2016-09-28T05:22:43.792Z,45.21
2016-09-28T05:23:09.331Z,45.12
2016-09-28T05:23:34.954Z,45.12
2016-09-28T05:24:00.495Z,45.03
2016-09-28T05:24:26.047Z,45.31
2016-09-28T05:24:51.589Z,45.21
2016-09-28T05:25:17.209Z,45.6
2016-09-28T05:26:30.942Z,45.51
2016-09-28T05:26:56.492Z,45.51
2016-09-28T05:27:22.071Z,45.7
2016-09-28T05:27:47.634Z,45.41
2016-09-28T05:28:13.232Z,45.51
2016-09-28T05:28:38.841Z,45.7
2016-09-28T05:29:04.402Z,45.7
2016-09-28T05:29:29.992Z,46.08
2016-09-28T05:29:55.664Z,46.28
2016-09-28T05:30:21.227Z,46.08
2016-09-28T05:30:46.776Z,46.08
2016-09-28T05:31:12.336Z,46.08
2016-09-28T05:32:20.659Z,45.89
2016-09-28T05:32:46.211Z,46.08
2016-09-28T05:33:11.821Z,46.08
2016-09-28T05:33:37.393Z,45.99
2016-09-28T05:34:02.968Z,45.99
2016-09-28T05:34:28.557Z,45.99
2016-09-28T05:34:54.140Z,45.89
2016-09-28T05:35:19.704Z,46.08
2016-09-28T05:35:45.261Z,45.89
2016-09-28T05:36:10.821Z,45.89
2016-09-28T05:36:36.396Z,45.89
2016-09-28T05:37:01.963Z,45.99
2016-09-28T05:37:27.515Z,46.08
2016-09-28T05:37:53.079Z,45.89
2016-09-28T05:38:18.658Z,45.89
2016-09-28T05:38:44.222Z,45.79
2016-09-28T05:39:09.779Z,46.08
2016-09-28T05:39:35.373Z,45.79
2016-09-28T05:40:00.912Z,46.18
2016-09-28T05:40:26.502Z,45.7
2016-09-28T05:40:52.069Z,46.28
2016-09-28T05:41:17.652Z,46.08
2016-09-28T05:41:43.301Z,46.18
2016-09-28T05:42:08.875Z,45.79
2016-09-28T05:42:34.437Z,45.7
2016-09-28T05:43:00.053Z,45.7
2016-09-28T05:43:25.612Z,46.08
2016-09-28T05:43:51.165Z,46.28
2016-09-28T05:44:16.781Z,45.99
2016-09-28T05:44:42.335Z,45.7
2016-09-28T05:45:07.900Z,45.89
2016-09-28T05:45:33.470Z,45.89
2016-09-28T05:45:59.027Z,45.89
2016-09-28T05:46:24.599Z,45.7
2016-09-28T05:46:50.226Z,45.89
2016-09-28T05:47:15.801Z,45.7
2016-09-28T05:47:41.388Z,45.89
2016-09-28T05:48:07.024Z,45.7
2016-09-28T05:48:32.574Z,45.7
2016-09-28T05:48:58.153Z,45.7
2016-09-28T05:49:23.717Z,45.7
2016-09-28T05:49:49.294Z,45.79
2016-09-28T05:50:14.869Z,46.37
2016-09-28T05:50:40.434Z,46.18
2016-09-28T05:51:05.990Z,45.6
2016-09-28T05:51:31.557Z,45.7
2016-09-28T05:51:57.119Z,46.56
2016-09-28T05:52:22.832Z,46.18
2016-09-28T05:52:48.431Z,45.99
2016-09-28T05:53:13.999Z,46.56
2016-09-28T05:53:39.564Z,46.56
2016-09-28T05:54:05.129Z,46.56
2016-09-28T05:54:30.720Z,46.56
2016-09-28T05:54:56.334Z,46.47
2016-09-28T05:55:21.900Z,46.28
2016-09-28T05:55:47.472Z,46.37
2016-09-28T05:56:13.061Z,46.37
2016-09-28T05:56:38.642Z,46.47
2016-09-28T05:57:04.203Z,46.37
2016-09-28T05:57:29.771Z,46.37
2016-09-28T05:57:55.340Z,46.4
2016-09-28T05:58:20.922Z,46.37
2016-09-28T05:58:46.585Z,46.56
2016-09-28T05:59:12.153Z,46.49
2016-09-28T05:59:37.704Z,46.47
2016-09-28T06:00:03.244Z,46.28
2016-09-28T06:00:28.788Z,46.28
2016-09-28T06:01:37.090Z,46.28
2016-09-28T06:02:02.649Z,46.28
2016-09-28T06:02:28.321Z,46.28
2016-09-28T06:02:54.135Z,46.18
2016-09-28T06:03:19.697Z,46.28
2016-09-28T06:03:45.314Z,45.99
2016-09-28T06:04:10.863Z,45.99
2016-09-28T06:04:36.429Z,46.28
2016-09-28T06:05:01.983Z,46.28
2016-09-28T06:05:27.552Z,46.08
2016-09-28T06:05:53.129Z,46.08
2016-09-28T06:06:18.685Z,46.28
2016-09-28T06:06:44.232Z,46.01
2016-09-28T06:07:09.878Z,45.89
2016-09-28T06:07:35.452Z,45.99
2016-09-28T06:08:01.020Z,46.11
2016-09-28T06:08:26.601Z,46.01
2016-09-28T06:08:52.249Z,46.37
2016-09-28T06:09:17.831Z,46.11
2016-09-28T06:09:43.424Z,46.01
2016-09-28T06:10:08.992Z,46.18
2016-09-28T06:10:34.642Z,46.08
2016-09-28T06:11:00.212Z,46.11
2016-09-28T06:11:25.795Z,45.99
2016-09-28T06:11:51.381Z,46.01
2016-09-28T06:12:16.940Z,46.18
2016-09-28T06:12:42.491Z,45.99
2016-09-28T06:13:08.056Z,46.01
2016-09-28T06:13:33.607Z,46.28
2016-09-28T06:13:59.182Z,46.01
2016-09-28T06:14:24.734Z,46.49
2016-09-28T06:14:50.300Z,46.18
2016-09-28T06:15:16.004Z,46.3
2016-09-28T06:15:41.560Z,46.37
2016-09-28T06:16:07.140Z,46.2
2016-09-28T06:16:32.695Z,46.01
2016-09-28T06:16:58.265Z,46.11
2016-09-28T06:17:24.004Z,46.11
2016-09-28T06:17:49.532Z,46.56
2016-09-28T06:18:15.089Z,45.92
2016-09-28T06:18:40.627Z,46.11
2016-09-28T06:19:06.170Z,46.2
2016-09-28T06:19:31.716Z,46.2
2016-09-28T06:19:57.275Z,46.2
2016-09-28T06:20:22.805Z,46.01
2016-09-28T06:20:48.357Z,46.3
2016-09-28T06:21:13.930Z,46.4
2016-09-28T06:21:39.503Z,46.3
2016-09-28T06:22:05.048Z,46.11
2016-09-28T06:22:30.604Z,46.3
2016-09-28T06:22:56.156Z,46.01
2016-09-28T06:23:21.692Z,46.01
2016-09-28T06:23:47.233Z,45.92
2016-09-28T06:24:12.870Z,46.01
2016-09-28T06:24:38.429Z,46.3
2016-09-28T06:25:04.093Z,46.4
2016-09-28T06:25:29.722Z,46.3
2016-09-28T06:26:23.516Z,46.01
2016-09-28T06:28:29.875Z,46.28
2016-09-28T06:28:55.443Z,46.3
2016-09-28T06:29:21.045Z,46.47
2016-09-28T06:30:34.430Z,46.56
2016-09-28T06:31:00.028Z,46.59
2016-09-28T06:31:25.583Z,46.59
2016-09-28T06:31:51.136Z,46.3
2016-09-28T06:32:16.706Z,46.3
2016-09-28T06:32:42.263Z,46.69
2016-09-28T06:33:07.859Z,46.49
2016-09-28T06:33:33.427Z,46.59
2016-09-28T06:34:36.641Z,46.59
2016-09-28T06:35:29.609Z,46.49
2016-09-28T06:35:55.177Z,46.59
2016-09-28T06:36:20.751Z,46.59
2016-09-28T06:36:46.368Z,46.4
2016-09-28T06:37:11.930Z,46.3
2016-09-28T06:37:37.482Z,46.2
2016-09-28T06:38:03.160Z,46.3
2016-09-28T06:38:28.724Z,46.3
2016-09-28T06:38:54.293Z,46.4
2016-09-28T06:39:19.847Z,46.3
2016-09-28T06:39:45.413Z,46.59
2016-09-28T06:40:10.980Z,46.49
2016-09-28T06:40:36.515Z,46.49
2016-09-28T06:41:02.083Z,46.49
2016-09-28T06:41:27.635Z,46.69
2016-09-28T06:41:53.312Z,46.4
2016-09-28T06:42:18.975Z,46.49
2016-09-28T06:42:44.546Z,46.49
2016-09-28T06:43:10.111Z,46.59
2016-09-28T06:43:35.675Z,46.3
2016-09-28T06:44:01.241Z,46.2
2016-09-28T06:44:26.790Z,46.59
2016-09-28T06:44:52.342Z,46.4
2016-09-28T06:45:17.935Z,46.2
2016-09-28T06:45:43.514Z,46.3
2016-09-28T06:46:09.082Z,46.11
2016-09-28T06:46:34.645Z,46.3
2016-09-28T06:47:32.797Z,46.3
2016-09-28T06:47:58.359Z,46.11
2016-09-28T06:48:23.915Z,46.49
2016-09-28T06:48:49.510Z,46.2
2016-09-28T06:49:15.172Z,46.69
2016-09-28T06:49:40.752Z,46.3
2016-09-28T06:50:06.317Z,46.3
2016-09-28T06:50:31.867Z,46.2
2016-09-28T06:50:57.440Z,46.2
2016-09-28T06:51:23.023Z,46.11
2016-09-28T06:51:48.580Z,46.11
2016-09-28T06:52:14.154Z,46.11
2016-09-28T06:52:39.723Z,46.01
2016-09-28T06:53:05.309Z,46.3
2016-09-28T06:53:30.853Z,46.3
2016-09-28T06:53:56.399Z,46.2
2016-09-28T06:54:21.938Z,46.2
2016-09-28T06:54:47.489Z,46.01
2016-09-28T06:55:13.061Z,46.3
2016-09-28T06:55:38.631Z,45.92
2016-09-28T06:56:04.196Z,46.11
2016-09-28T06:56:29.756Z,46.4
2016-09-28T06:56:55.472Z,46.4
2016-09-28T06:57:21.037Z,46.4
2016-09-28T06:57:46.589Z,46.49
2016-09-28T06:58:12.137Z,46.3
2016-09-28T06:58:37.720Z,46.01
2016-09-28T06:59:03.290Z,46.11
2016-09-28T06:59:28.866Z,46.11
2016-09-28T06:59:54.432Z,46.49
2016-09-28T07:00:19.987Z,46.49
2016-09-28T07:00:45.599Z,46.01
2016-09-28T07:01:11.176Z,46.11
2016-09-28T07:01:36.727Z,46.3
2016-09-28T07:02:02.283Z,46.4
2016-09-28T07:02:27.832Z,46.59
2016-09-28T07:02:53.441Z,46.69
2016-09-28T07:03:19.021Z,46.23
2016-09-28T07:03:44.592Z,46.3
2016-09-28T07:04:39.454Z,46.59
2016-09-28T07:06:53.033Z,46.42
2016-09-28T07:07:18.694Z,46.42
2016-09-28T07:07:44.260Z,46.2
2016-09-28T07:08:09.815Z,46.3
2016-09-28T07:08:35.392Z,46.4
2016-09-28T07:09:01.007Z,46.49
2016-09-28T07:09:26.555Z,46.81
2016-09-28T07:09:52.113Z,46.42
2016-09-28T07:10:17.735Z,46.3
2016-09-28T07:10:43.290Z,46.59
2016-09-28T07:11:08.854Z,46.69
2016-09-28T07:11:34.451Z,46.3
2016-09-28T07:12:00.022Z,46.49
2016-09-28T07:12:25.584Z,46.49
2016-09-28T07:12:51.146Z,46.4
2016-09-28T07:13:16.702Z,46.81
2016-09-28T07:13:42.250Z,46.49
2016-09-28T07:14:07.821Z,46.33
2016-09-28T07:14:33.390Z,46.61
2016-09-28T07:14:58.960Z,46.42
2016-09-28T07:15:24.535Z,46.33
2016-09-28T07:15:50.098Z,46.61
2016-09-28T07:16:15.668Z,46.42
2016-09-28T07:16:41.232Z,46.42
2016-09-28T07:17:06.783Z,46.71
2016-09-28T07:17:32.357Z,46.51
2016-09-28T07:17:57.932Z,46.42
2016-09-28T07:18:23.501Z,46.51
2016-09-28T07:18:49.062Z,46.42
2016-09-28T07:19:14.610Z,46.33
2016-09-28T07:19:40.160Z,46.51
2016-09-28T07:20:05.742Z,46.61
2016-09-28T07:20:31.290Z,46.33
2016-09-28T07:20:56.855Z,46.61
2016-09-28T07:21:22.420Z,46.81
2016-09-28T07:21:47.988Z,46.33
2016-09-28T07:22:13.560Z,46.42
2016-09-28T07:22:39.128Z,46.61
2016-09-28T07:23:04.696Z,46.23
2016-09-28T07:23:30.263Z,46.51
2016-09-28T07:23:55.841Z,46.81
2016-09-28T07:24:21.432Z,46.61
2016-09-28T07:24:47.132Z,46.9
2016-09-28T07:25:12.702Z,46.9
2016-09-28T07:25:38.273Z,46.51
2016-09-28T07:26:03.839Z,46.81
2016-09-28T07:26:29.427Z,46.51
2016-09-28T07:26:54.995Z,46.9
2016-09-28T07:27:20.580Z,46.9
2016-09-28T07:27:46.132Z,46.71
2016-09-28T07:28:11.689Z,46.81
2016-09-28T07:28:37.249Z,46.81
2016-09-28T07:29:02.888Z,46.81
2016-09-28T07:29:28.558Z,46.81
2016-09-28T07:29:54.019Z,46.71
2016-09-28T07:30:19.576Z,46.81
2016-09-28T07:30:45.129Z,47
2016-09-28T07:31:10.684Z,47
2016-09-28T07:31:36.247Z,46.9
2016-09-28T07:32:01.813Z,47.19
2016-09-28T07:32:27.480Z,46.81
2016-09-28T07:32:53.054Z,47
2016-09-28T07:33:18.631Z,46.81
2016-09-28T07:33:44.193Z,46.81
2016-09-28T07:34:09.766Z,46.9
2016-09-28T07:34:35.295Z,47
2016-09-28T07:35:00.859Z,46.81
2016-09-28T07:35:26.392Z,47.48
2016-09-28T07:35:51.943Z,47.19
2016-09-28T07:36:17.534Z,47
2016-09-28T07:36:43.685Z,47.09
2016-09-28T07:37:09.226Z,47.29
2016-09-28T07:37:34.780Z,47.09
2016-09-28T07:38:00.319Z,46.81
2016-09-28T07:38:25.907Z,47
2016-09-28T07:38:51.451Z,47.29
2016-09-28T07:39:17.129Z,47.38
2016-09-28T07:39:42.707Z,47.29
2016-09-28T07:40:08.247Z,47.19
2016-09-28T07:40:33.795Z,47.19
2016-09-28T07:40:59.481Z,47.29
2016-09-28T07:41:25.038Z,47.19
2016-09-28T07:41:50.579Z,47.29
2016-09-28T07:42:16.137Z,47.19
2016-09-28T07:42:41.687Z,47.38
2016-09-28T07:43:07.264Z,47.19
2016-09-28T07:43:32.820Z,47.19
2016-09-28T07:43:58.348Z,47.38
2016-09-28T07:44:23.903Z,47.19
2016-09-28T07:44:49.468Z,47.48
2016-09-28T07:45:15.028Z,47.77
2016-09-28T07:45:40.575Z,47.48
2016-09-28T07:46:39.855Z,47.48
2016-09-28T07:48:54.133Z,47.96
2016-09-28T07:49:19.736Z,48.06
2016-09-28T07:49:45.312Z,48.06
2016-09-28T07:50:10.888Z,48.06
2016-09-28T07:50:36.567Z,48.16
2016-09-28T07:51:02.149Z,47.58
2016-09-28T07:51:27.709Z,47.58
2016-09-28T07:51:53.392Z,47.67
2016-09-28T07:52:19.036Z,47.67
2016-09-28T07:52:44.590Z,48.06
2016-09-28T07:53:10.158Z,47.96
2016-09-28T07:53:35.961Z,47.87
2016-09-28T07:54:01.690Z,47.77
2016-09-28T07:54:27.262Z,47.87
2016-09-28T07:54:52.830Z,47.77
2016-09-28T07:55:18.455Z,48.06
2016-09-28T07:55:44.043Z,47.96
2016-09-28T07:56:09.627Z,47.77
2016-09-28T07:56:35.197Z,47.96
2016-09-28T07:57:00.761Z,48.06
2016-09-28T07:57:26.330Z,47.58
2016-09-28T07:58:39.747Z,47.87
2016-09-28T07:59:05.481Z,47.67
2016-09-28T07:59:31.069Z,48.06
2016-09-28T07:59:56.622Z,47.87
2016-09-28T08:00:22.220Z,47.96
2016-09-28T08:00:47.887Z,47.77
2016-09-28T08:01:13.465Z,47.77
2016-09-28T08:01:39.015Z,47.96
2016-09-28T08:02:04.588Z,47.96
2016-09-28T08:02:30.148Z,47.77
2016-09-28T08:02:55.708Z,47.67
2016-09-28T08:03:21.281Z,47.96
2016-09-28T08:03:46.833Z,47.87
2016-09-28T08:04:12.379Z,47.77
2016-09-28T08:04:37.942Z,47.77
2016-09-28T08:05:03.504Z,47.77
2016-09-28T08:05:29.071Z,48.06
2016-09-28T08:05:54.642Z,47.87
2016-09-28T08:06:20.244Z,47.96
2016-09-28T08:06:45.797Z,47.87
2016-09-28T08:07:11.353Z,47.96
2016-09-28T08:07:36.924Z,47.96
2016-09-28T08:08:29.927Z,48.16
2016-09-28T08:08:55.585Z,47.96
2016-09-28T08:09:21.143Z,47.96
2016-09-28T08:09:46.676Z,47.96
2016-09-28T08:10:12.222Z,48.16
2016-09-28T08:10:37.778Z,47.96
2016-09-28T08:11:03.347Z,47.96
2016-09-28T08:11:28.903Z,47.96
2016-09-28T08:11:54.481Z,48.06
2016-09-28T08:12:20.121Z,47.96
2016-09-28T08:12:45.704Z,47.96
2016-09-28T08:13:11.260Z,47.87
2016-09-28T08:13:36.962Z,47.96
2016-09-28T08:14:02.533Z,48.16
2016-09-28T08:14:28.096Z,48.06
2016-09-28T08:14:53.659Z,48.06
2016-09-28T08:15:19.234Z,48.06
2016-09-28T08:16:32.971Z,48.16
2016-09-28T08:16:58.588Z,48.06
2016-09-28T08:17:24.150Z,47.96
2016-09-28T08:17:49.723Z,48.06
2016-09-28T08:18:15.276Z,47.96
2016-09-28T08:18:40.933Z,47.87
2016-09-28T08:19:06.569Z,48.06
2016-09-28T08:19:32.132Z,47.87
2016-09-28T08:19:57.687Z,47.96
2016-09-28T08:20:23.255Z,48.16
2016-09-28T08:20:48.812Z,47.87
2016-09-28T08:21:14.362Z,47.87
2016-09-28T08:21:39.961Z,48.06
2016-09-28T08:22:05.540Z,47.87
2016-09-28T08:22:31.101Z,47.87
2016-09-28T08:22:56.643Z,47.77
2016-09-28T08:23:22.345Z,47.87
2016-09-28T08:23:47.905Z,47.87
2016-09-28T08:24:13.467Z,47.77
2016-09-28T08:24:39.023Z,47.77
2016-09-28T08:25:04.612Z,47.87
2016-09-28T08:25:30.172Z,47.77
2016-09-28T08:25:55.733Z,47.48
2016-09-28T08:26:21.322Z,47.38
2016-09-28T08:27:34.832Z,47.77
2016-09-28T08:28:00.381Z,47.67
2016-09-28T08:28:25.927Z,47.96
2016-09-28T08:28:51.507Z,47.96
2016-09-28T08:29:17.164Z,47.77
2016-09-28T08:29:42.710Z,47.87
2016-09-28T08:30:08.292Z,48.16
2016-09-28T08:30:33.845Z,48.06
2016-09-28T08:30:59.550Z,47.96
2016-09-28T08:31:25.123Z,47.96
2016-09-28T08:31:50.749Z,48.06
2016-09-28T08:32:16.354Z,47.77
2016-09-28T08:32:41.937Z,48.16
2016-09-28T08:33:07.503Z,47.96
2016-09-28T08:33:33.111Z,47.96
2016-09-28T08:33:58.682Z,47.96
2016-09-28T08:34:24.257Z,48.06
2016-09-28T08:34:49.846Z,48.06
2016-09-28T08:35:15.412Z,48.06
2016-09-28T08:35:40.982Z,48.06
2016-09-28T08:36:06.537Z,47.87
2016-09-28T08:36:32.097Z,47.96
2016-09-28T08:36:57.663Z,47.87
2016-09-28T08:37:23.214Z,48.06
2016-09-28T08:37:48.770Z,47.96
2016-09-28T08:38:14.341Z,47.96
2016-09-28T08:38:39.909Z,47.96
2016-09-28T08:39:38.004Z,47.87
2016-09-28T08:40:03.572Z,47.87
2016-09-28T08:40:29.143Z,47.87
2016-09-28T08:40:54.714Z,48.06
2016-09-28T08:41:20.262Z,47.87
2016-09-28T08:41:45.975Z,47.96
2016-09-28T08:42:11.539Z,47.96
2016-09-28T08:42:37.105Z,47.87
2016-09-28T08:43:02.673Z,47.96
2016-09-28T08:43:28.265Z,48.06
2016-09-28T08:43:53.838Z,47.96
2016-09-28T08:44:19.390Z,47.99
2016-09-28T08:44:44.969Z,48.06
2016-09-28T08:45:10.613Z,48.06
2016-09-28T08:45:36.186Z,47.96
2016-09-28T08:46:01.770Z,48.06
2016-09-28T08:46:27.313Z,48.06
2016-09-28T08:46:52.870Z,48.06
2016-09-28T08:47:18.463Z,48.06
2016-09-28T08:47:44.057Z,47.96
2016-09-28T08:48:09.615Z,47.87
2016-09-28T08:48:35.187Z,47.87
2016-09-28T08:49:00.753Z,47.96
2016-09-28T08:49:26.305Z,47.77
2016-09-28T08:49:51.872Z,47.87
2016-09-28T08:50:17.432Z,47.77
2016-09-28T08:50:43.004Z,47.77
2016-09-28T08:51:08.659Z,47.87
2016-09-28T08:51:34.226Z,47.67
2016-09-28T08:51:59.799Z,47.67
2016-09-28T08:52:25.463Z,47.67
2016-09-28T08:52:51.048Z,48.06
2016-09-28T08:53:16.612Z,47.87
2016-09-28T08:53:42.164Z,48.06
2016-09-28T08:54:07.752Z,47.67
2016-09-28T08:54:33.322Z,47.67
2016-09-28T08:54:58.894Z,48.06
2016-09-28T08:55:24.455Z,47.96
2016-09-28T08:55:50.061Z,47.77
2016-09-28T08:56:15.643Z,47.8
2016-09-28T08:56:41.234Z,47.96
2016-09-28T08:57:06.793Z,47.67
2016-09-28T08:57:32.384Z,47.87
2016-09-28T08:57:58.062Z,47.87
2016-09-28T08:58:23.630Z,47.96
2016-09-28T08:58:49.259Z,47.87
2016-09-28T08:59:14.858Z,47.77
2016-09-28T08:59:40.430Z,47.96
2016-09-28T09:00:05.986Z,47.67
2016-09-28T09:00:31.543Z,47.7
2016-09-28T09:00:57.121Z,47.58
2016-09-28T09:01:22.705Z,47.77
2016-09-28T09:01:48.277Z,47.77
2016-09-28T09:02:13.838Z,47.58
2016-09-28T09:02:39.413Z,47.77
2016-09-28T09:03:04.973Z,47.87
2016-09-28T09:03:30.543Z,47.67
2016-09-28T09:03:56.105Z,47.67
2016-09-28T09:04:21.677Z,47.87
2016-09-28T09:04:47.229Z,47.87
2016-09-28T09:05:12.783Z,47.77
2016-09-28T09:05:38.373Z,47.8
2016-09-28T09:06:03.922Z,48.06
2016-09-28T09:06:29.547Z,47.87
2016-09-28T09:06:55.115Z,48.06
2016-09-28T09:07:20.678Z,47.77
2016-09-28T09:07:46.227Z,47.67
2016-09-28T09:08:11.805Z,47.67
2016-09-28T09:08:37.375Z,47.67
2016-09-28T09:09:02.939Z,47.6
2016-09-28T09:09:28.510Z,47.58
2016-09-28T09:09:54.087Z,47.77
2016-09-28T09:10:19.727Z,47.99